Terminal Aerodrome Forecast
Issued by NWS

Home | Current Version | Previous Version | Text Only | Print | Product List | Glossary On
Versions: 1 2 3 4 5 6 7 8 9 10 11 12 13 14 15 16 17 18 19 20 21 22 23 24 25 26 27
258
FTUS44 KFWD 200633 AAA
TAFGKY
TAF AMD
KGKY 200633Z 2007/2106 16011KT P6SM -DZ OVC006
      TEMPO 2007/2010 2SM BR OVC004
     FM201200 16011KT P6SM BKN012
     FM201400 17015KT P6SM SCT012=

USA.gov is the U.S. government's official web portal to all federal, state and local government web resources and services.